createdAt,value
2018-08-30T00:00:47.605Z,66.04
2018-08-30T00:03:17.870Z,65.61
2018-08-30T00:05:47.820Z,66.20
2018-08-30T00:08:18.410Z,66.26
2018-08-30T00:10:49.859Z,66.83
2018-08-30T00:13:22.610Z,67.13
2018-08-30T00:15:52.874Z,66.95
2018-08-30T00:18:22.126Z,67.67
2018-08-30T00:20:50.996Z,67.46
2018-08-30T00:23:20.373Z,67.63
2018-08-30T00:25:50.023Z,68.29
2018-08-30T00:28:21.192Z,68.14
2018-08-30T00:30:50.184Z,68.30
2018-08-30T00:33:19.868Z,68.65
2018-08-30T00:35:49.716Z,68.09
2018-08-30T00:38:18.529Z,68.43
2018-08-30T00:40:49.102Z,68.83
2018-08-30T00:43:18.303Z,68.87
2018-08-30T00:45:48.317Z,69.23
2018-08-30T00:48:18.489Z,69.77
2018-08-30T00:50:54.146Z,69.77
2018-08-30T00:53:23.438Z,69.66
2018-08-30T00:55:53.406Z,70.05
2018-08-30T00:58:23.561Z,70.02
2018-08-30T01:00:52.130Z,70.00
2018-08-30T01:03:22.604Z,69.84
2018-08-30T01:05:51.687Z,69.55
2018-08-30T01:08:20.269Z,69.63
2018-08-30T01:10:50.856Z,70.80
2018-08-30T01:13:20.545Z,71.03
2018-08-30T01:15:50.070Z,70.98
2018-08-30T01:18:18.633Z,71.47
2018-08-30T01:20:48.681Z,72.17
2018-08-30T01:23:18.910Z,73.17
2018-08-30T01:25:48.338Z,74.74
2018-08-30T01:28:16.986Z,75.20
2018-08-30T01:30:48.360Z,75.57
2018-08-30T01:33:17.420Z,76.42
2018-08-30T01:35:46.926Z,76.25
2018-08-30T01:38:17.268Z,76.35
2018-08-30T01:40:47.503Z,77.03
2018-08-30T01:43:16.713Z,77.10
2018-08-30T01:45:46.083Z,77.81
2018-08-30T01:48:21.420Z,77.20
2018-08-30T01:50:50.887Z,78.88
2018-08-30T01:53:19.405Z,77.99
2018-08-30T01:55:48.127Z,78.21
2018-08-30T01:58:17.879Z,78.69
2018-08-30T02:00:46.511Z,79.41
2018-08-30T02:03:15.110Z,79.31
2018-08-30T02:05:43.630Z,78.77
2018-08-30T02:08:12.330Z,78.15
2018-08-30T02:10:41.308Z,79.35
2018-08-30T02:13:10.482Z,79.50
2018-08-30T02:15:40.037Z,78.75
2018-08-30T02:18:09.099Z,78.74
2018-08-30T02:20:37.776Z,79.03
2018-08-30T02:23:07.105Z,79.16
2018-08-30T02:25:35.884Z,79.31
2018-08-30T02:28:05.829Z,79.81
2018-08-30T02:30:34.486Z,79.94
2018-08-30T02:33:04.603Z,79.70
2018-08-30T02:35:33.540Z,79.54
2018-08-30T02:38:03.013Z,79.74
2018-08-30T02:40:33.180Z,78.97
2018-08-30T02:43:02.342Z,79.94
2018-08-30T02:45:35.200Z,79.61
2018-08-30T02:48:06.340Z,79.22
2018-08-30T02:50:37.053Z,79.54
2018-08-30T02:53:06.207Z,79.79
2018-08-30T02:55:35.121Z,80.53
2018-08-30T02:58:05.549Z,80.48
2018-08-30T03:00:35.657Z,81.00
2018-08-30T03:03:04.205Z,81.18
2018-08-30T03:05:34.130Z,80.65
2018-08-30T03:08:03.203Z,80.37
2018-08-30T03:10:32.740Z,80.37
2018-08-30T03:13:02.347Z,80.02
2018-08-30T03:15:31.752Z,80.49
2018-08-30T03:18:05.314Z,79.91
2018-08-30T03:20:34.579Z,79.70
2018-08-30T03:23:04.686Z,80.16
2018-08-30T03:25:34.408Z,79.86
2018-08-30T03:28:03.262Z,80.80
2018-08-30T03:30:32.910Z,79.84
2018-08-30T03:33:01.643Z,80.04
2018-08-30T03:35:31.613Z,80.62
2018-08-30T03:38:02.823Z,80.86
2018-08-30T03:40:31.562Z,80.85
2018-08-30T03:43:00.304Z,81.20
2018-08-30T03:45:29.534Z,81.05
2018-08-30T03:47:59.550Z,80.78
2018-08-30T03:50:33.562Z,81.21
2018-08-30T03:53:04.251Z,81.00
2018-08-30T03:55:34.107Z,81.13
2018-08-30T03:58:03.948Z,80.88
2018-08-30T04:00:33.841Z,80.77
2018-08-30T04:03:03.708Z,79.99
2018-08-30T04:05:32.738Z,79.90
2018-08-30T04:08:01.786Z,80.16
2018-08-30T04:10:31.825Z,80.03
2018-08-30T04:13:00.931Z,79.67
2018-08-30T04:15:30.124Z,80.20
2018-08-30T04:17:58.998Z,79.04
2018-08-30T04:20:29.256Z,79.36
2018-08-30T04:22:58.535Z,79.45
2018-08-30T04:25:27.613Z,79.39
2018-08-30T04:27:58.008Z,79.84
2018-08-30T04:30:26.971Z,80.73
2018-08-30T04:32:56.148Z,80.04
2018-08-30T04:35:24.710Z,79.76
2018-08-30T04:37:53.226Z,80.34
2018-08-30T04:40:22.018Z,81.03
2018-08-30T04:42:50.858Z,80.40
2018-08-30T04:45:20.198Z,80.04
2018-08-30T04:47:49.924Z,80.52
2018-08-30T04:50:19.168Z,81.09
2018-08-30T04:52:48.817Z,81.13
2018-08-30T04:55:18.326Z,81.70
2018-08-30T04:57:48.025Z,80.62
2018-08-30T05:00:16.696Z,80.57
2018-08-30T05:02:45.439Z,80.44
2018-08-30T05:05:15.539Z,81.23
2018-08-30T05:07:45.533Z,80.77
2018-08-30T05:10:17.364Z,81.53
2018-08-30T05:12:49.154Z,81.02
2018-08-30T05:15:18.403Z,80.04
2018-08-30T05:17:49.017Z,80.70
2018-08-30T05:20:18.339Z,81.08
2018-08-30T05:22:49.686Z,80.94
2018-08-30T05:25:19.331Z,80.78
2018-08-30T05:27:48.429Z,80.11
2018-08-30T05:30:17.135Z,80.03
2018-08-30T05:32:46.960Z,79.66
2018-08-30T05:35:17.336Z,79.59
2018-08-30T05:37:45.967Z,80.35
2018-08-30T05:40:15.657Z,80.11
2018-08-30T05:42:44.238Z,79.35
2018-08-30T05:45:13.222Z,80.81
2018-08-30T05:47:42.521Z,81.07
2018-08-30T05:50:12.460Z,80.90
2018-08-30T05:52:41.106Z,81.02
2018-08-30T05:55:10.375Z,80.57
2018-08-30T05:57:39.825Z,81.22
2018-08-30T06:00:08.369Z,81.46
2018-08-30T06:02:37.055Z,81.75
2018-08-30T06:05:06.199Z,82.23
2018-08-30T06:07:35.984Z,81.75
2018-08-30T06:10:04.773Z,81.99
2018-08-30T06:12:33.890Z,81.32
2018-08-30T06:15:02.519Z,81.99
2018-08-30T06:17:31.960Z,82.00
2018-08-30T06:20:01.608Z,81.72
2018-08-30T06:22:30.433Z,82.39
2018-08-30T06:24:59.784Z,82.35
2018-08-30T06:27:29.236Z,81.51
2018-08-30T06:29:58.447Z,81.48
2018-08-30T06:32:27.348Z,81.39
2018-08-30T06:34:56.107Z,82.29
2018-08-30T06:37:25.496Z,81.70
2018-08-30T06:39:55.186Z,80.94
2018-08-30T06:42:25.612Z,81.40
2018-08-30T06:44:54.117Z,82.32
2018-08-30T06:47:23.942Z,82.08
2018-08-30T06:49:53.404Z,81.19
2018-08-30T06:52:22.987Z,81.34
2018-08-30T06:54:52.248Z,81.20
2018-08-30T06:57:21.886Z,80.70
2018-08-30T06:59:50.478Z,80.72
2018-08-30T07:02:19.196Z,79.57
2018-08-30T07:04:49.471Z,80.23
2018-08-30T07:07:19.137Z,80.18
2018-08-30T07:09:47.803Z,80.53
2018-08-30T07:12:17.274Z,79.66
2018-08-30T07:14:46.513Z,79.33
2018-08-30T07:17:15.189Z,80.12
2018-08-30T07:19:47.552Z,80.58
2018-08-30T07:22:18.337Z,79.96
2018-08-30T07:24:48.009Z,79.08
2018-08-30T07:27:16.662Z,79.36
2018-08-30T07:29:46.904Z,79.82
2018-08-30T07:32:15.578Z,79.94
2018-08-30T07:34:44.895Z,79.74
2018-08-30T07:37:14.129Z,79.78
2018-08-30T07:39:44.258Z,78.99
2018-08-30T07:42:13.124Z,78.71
2018-08-30T07:44:41.884Z,78.55
2018-08-30T07:47:11.342Z,78.47
2018-08-30T07:49:40.977Z,78.50
2018-08-30T07:52:09.562Z,78.39
2018-08-30T07:54:38.201Z,78.01
2018-08-30T07:57:07.453Z,78.02
2018-08-30T07:59:37.076Z,77.71
2018-08-30T08:02:06.136Z,78.37
2018-08-30T08:04:34.658Z,78.71
2018-08-30T08:07:04.275Z,78.04
2018-08-30T08:09:33.622Z,78.68
2018-08-30T08:12:02.420Z,78.43
2018-08-30T08:14:30.917Z,78.96
2018-08-30T08:16:59.518Z,78.19
2018-08-30T08:19:28.928Z,77.62
2018-08-30T08:21:57.598Z,77.38
2018-08-30T08:24:26.160Z,77.43
2018-08-30T08:26:55.373Z,77.46
2018-08-30T08:29:24.863Z,77.60
2018-08-30T08:31:54.581Z,76.71
2018-08-30T08:34:23.746Z,76.77
2018-08-30T08:36:52.259Z,76.69
2018-08-30T08:39:22.281Z,75.89
2018-08-30T08:41:52.096Z,76.03
2018-08-30T08:44:21.974Z,75.93
2018-08-30T08:46:50.550Z,76.33
2018-08-30T08:49:21.790Z,76.72
2018-08-30T08:51:50.273Z,76.37
2018-08-30T08:54:19.481Z,76.40
2018-08-30T08:56:49.244Z,75.10
2018-08-30T08:59:18.881Z,74.36
2018-08-30T09:01:48.449Z,74.31
2018-08-30T09:04:17.041Z,74.69
2018-08-30T09:06:47.205Z,74.92
2018-08-30T09:09:15.939Z,75.02
2018-08-30T09:11:45.325Z,75.22
2018-08-30T09:14:14.026Z,74.92
2018-08-30T09:16:44.512Z,74.06
2018-08-30T09:19:13.842Z,74.66
2018-08-30T09:21:43.678Z,74.37
2018-08-30T09:24:12.373Z,74.08
2018-08-30T09:26:42.834Z,74.51
2018-08-30T09:29:13.871Z,74.21
2018-08-30T09:31:42.547Z,73.92
2018-08-30T09:34:11.797Z,74.01
2018-08-30T09:36:42.803Z,73.32
2018-08-30T09:39:12.732Z,72.71
2018-08-30T09:41:42.264Z,72.74
2018-08-30T09:44:11.412Z,72.10
2018-08-30T09:46:44.993Z,72.23
2018-08-30T09:49:15.158Z,72.22
2018-08-30T09:51:44.498Z,71.07
2018-08-30T09:54:15.041Z,71.51
2018-08-30T09:56:43.597Z,70.31
2018-08-30T09:59:13.012Z,70.00
2018-08-30T10:01:50.656Z,70.56
2018-08-30T10:04:20.227Z,69.90
2018-08-30T10:06:49.213Z,69.91
2018-08-30T10:09:18.157Z,69.91
2018-08-30T10:11:47.420Z,69.96
2018-08-30T10:14:16.068Z,69.08
2018-08-30T10:16:45.927Z,69.56
2018-08-30T10:19:14.859Z,69.64
2018-08-30T10:21:44.073Z,69.86
2018-08-30T10:24:12.712Z,70.28
2018-08-30T10:26:41.281Z,70.75
2018-08-30T10:29:11.640Z,71.21
2018-08-30T10:31:41.262Z,70.30
2018-08-30T10:34:12.028Z,71.19
2018-08-30T10:36:40.652Z,71.61
2018-08-30T10:39:10.009Z,70.64
2018-08-30T10:41:39.267Z,71.03
2018-08-30T10:44:09.061Z,69.54
2018-08-30T10:46:38.630Z,69.74
2018-08-30T10:49:07.455Z,69.73
2018-08-30T10:51:38.931Z,69.34
2018-08-30T10:54:08.527Z,69.14
2018-08-30T10:56:37.134Z,69.32
2018-08-30T10:59:06.052Z,69.22
2018-08-30T11:01:35.041Z,69.12
2018-08-30T11:04:04.911Z,68.07
2018-08-30T11:06:34.266Z,68.22
2018-08-30T11:09:05.199Z,68.05
2018-08-30T11:11:34.458Z,66.66
2018-08-30T11:14:03.937Z,66.85
2018-08-30T11:16:32.512Z,66.32
2018-08-30T11:19:01.930Z,65.59
2018-08-30T11:21:30.633Z,65.97
2018-08-30T11:23:59.926Z,65.02
2018-08-30T11:26:29.357Z,65.23
2018-08-30T11:28:59.182Z,65.05
2018-08-30T11:31:28.136Z,64.73
2018-08-30T11:33:57.448Z,64.36
2018-08-30T11:36:26.085Z,63.41
2018-08-30T11:38:54.744Z,63.67
2018-08-30T11:41:24.774Z,63.01
2018-08-30T11:43:53.438Z,62.19
2018-08-30T11:46:22.164Z,60.92
2018-08-30T11:48:50.772Z,59.85
2018-08-30T11:51:19.687Z,60.45
2018-08-30T11:53:49.289Z,60.26
2018-08-30T11:56:18.438Z,60.80
2018-08-30T11:58:47.026Z,61.05
2018-08-30T12:01:15.936Z,61.25
2018-08-30T12:03:45.805Z,61.38
2018-08-30T12:06:15.274Z,61.24
2018-08-30T12:08:45.364Z,61.37
2018-08-30T12:11:15.815Z,61.13
2018-08-30T12:13:45.846Z,60.00
2018-08-30T12:16:14.534Z,59.61
2018-08-30T12:18:44.563Z,59.99
2018-08-30T12:21:14.298Z,59.81
2018-08-30T12:23:44.460Z,59.72
2018-08-30T12:26:14.988Z,58.87
2018-08-30T12:28:43.711Z,57.91
2018-08-30T12:31:13.007Z,57.28
2018-08-30T12:33:45.426Z,57.89
2018-08-30T12:36:14.659Z,58.54
2018-08-30T12:38:44.540Z,60.58
2018-08-30T12:41:14.090Z,61.85
2018-08-30T12:43:44.437Z,62.79
2018-08-30T12:46:13.722Z,63.73
2018-08-30T12:48:42.407Z,63.98
2018-08-30T12:51:11.295Z,64.27
2018-08-30T12:53:40.670Z,64.76
2018-08-30T12:56:10.169Z,64.74
2018-08-30T12:58:39.187Z,65.15
2018-08-30T13:01:09.695Z,65.43
2018-08-30T13:03:39.407Z,65.70
2018-08-30T13:06:08.346Z,66.09
2018-08-30T13:08:37.567Z,66.29
2018-08-30T13:11:07.099Z,65.85
2018-08-30T13:13:37.242Z,66.09
2018-08-30T13:16:07.241Z,65.60
2018-08-30T13:18:36.536Z,64.68
2018-08-30T13:21:05.391Z,64.39
2018-08-30T13:23:34.783Z,63.73
2018-08-30T13:26:04.009Z,61.88
2018-08-30T13:28:33.345Z,62.34
2018-08-30T13:31:02.385Z,61.98
2018-08-30T13:33:33.842Z,63.84
2018-08-30T13:36:04.221Z,66.67
2018-08-30T13:38:33.251Z,70.24
2018-08-30T13:41:02.086Z,71.64
2018-08-30T13:43:31.620Z,74.43
2018-08-30T13:46:03.942Z,75.50
2018-08-30T13:48:34.083Z,76.31
2018-08-30T13:51:04.199Z,76.29
2018-08-30T13:53:32.893Z,78.42
2018-08-30T13:56:02.540Z,77.44
2018-08-30T13:58:31.865Z,77.57
2018-08-30T14:01:00.836Z,77.18
2018-08-30T14:03:29.554Z,78.12
2018-08-30T14:05:59.927Z,80.18
2018-08-30T14:08:29.107Z,78.42
2018-08-30T14:10:57.841Z,80.48
2018-08-30T14:13:26.833Z,80.35
2018-08-30T14:15:55.598Z,80.40
2018-08-30T14:18:24.384Z,78.92
2018-08-30T14:20:54.621Z,80.18
2018-08-30T14:23:23.786Z,80.07
2018-08-30T14:25:52.563Z,80.31
2018-08-30T14:28:22.322Z,80.16
2018-08-30T14:30:52.758Z,80.57
2018-08-30T14:33:22.579Z,80.15
2018-08-30T14:35:51.200Z,81.40
2018-08-30T14:38:21.245Z,80.57
2018-08-30T14:40:53.393Z,80.82
2018-08-30T14:43:22.452Z,80.31
2018-08-30T14:45:51.057Z,80.96
2018-08-30T14:48:20.496Z,80.90
2018-08-30T14:50:50.984Z,80.85
2018-08-30T14:53:21.415Z,80.14
2018-08-30T14:55:51.824Z,80.30
2018-08-30T14:58:21.150Z,81.03
2018-08-30T15:00:50.646Z,80.35
2018-08-30T15:03:20.148Z,80.95
2018-08-30T15:05:51.625Z,79.96
2018-08-30T15:08:23.612Z,79.72
2018-08-30T15:10:52.313Z,80.09
2018-08-30T15:13:22.251Z,79.73
2018-08-30T15:15:51.072Z,79.59
2018-08-30T15:18:19.650Z,80.19
2018-08-30T15:20:49.417Z,80.08
2018-08-30T15:23:18.354Z,80.30
2018-08-30T15:25:48.575Z,79.76
2018-08-30T15:28:18.530Z,80.89
2018-08-30T15:30:48.908Z,80.16
2018-08-30T15:33:17.777Z,80.09
2018-08-30T15:35:47.973Z,80.37
2018-08-30T15:38:17.818Z,78.86
2018-08-30T15:40:49.077Z,80.26
2018-08-30T15:43:18.713Z,80.18
2018-08-30T15:45:47.486Z,80.15
2018-08-30T15:48:17.955Z,80.02
2018-08-30T15:50:52.224Z,80.53
2018-08-30T15:53:21.184Z,80.86
2018-08-30T15:55:52.024Z,81.09
2018-08-30T15:58:21.470Z,80.66
2018-08-30T16:00:50.128Z,81.07
2018-08-30T16:03:19.850Z,81.55
2018-08-30T16:05:49.548Z,81.46
2018-08-30T16:08:19.992Z,81.05
2018-08-30T16:10:48.797Z,81.66
2018-08-30T16:13:21.331Z,80.74
2018-08-30T16:15:50.996Z,80.83
2018-08-30T16:18:20.330Z,80.62
2018-08-30T16:20:49.896Z,80.30
2018-08-30T16:23:27.724Z,79.98
2018-08-30T16:25:58.283Z,80.10
2018-08-30T16:28:28.583Z,80.23
2018-08-30T16:30:57.412Z,79.87
2018-08-30T16:33:26.268Z,80.14
2018-08-30T16:35:56.876Z,79.76
2018-08-30T16:38:25.609Z,79.55
2018-08-30T16:40:54.727Z,80.02
2018-08-30T16:43:23.508Z,79.18
2018-08-30T16:45:52.494Z,79.18
2018-08-30T16:48:21.590Z,79.82
2018-08-30T16:50:51.516Z,79.66
2018-08-30T16:53:21.579Z,79.87
2018-08-30T16:55:55.264Z,79.84
2018-08-30T16:58:23.947Z,79.40
2018-08-30T17:00:52.564Z,79.22
2018-08-30T17:03:22.118Z,78.91
2018-08-30T17:05:50.796Z,79.25
2018-08-30T17:08:19.774Z,79.55
2018-08-30T17:10:48.710Z,79.35
2018-08-30T17:13:18.104Z,78.85
2018-08-30T17:15:47.736Z,78.54
2018-08-30T17:18:17.444Z,78.91
2018-08-30T17:20:48.167Z,79.53
2018-08-30T17:23:16.897Z,79.38
2018-08-30T17:25:46.298Z,79.37
2018-08-30T17:28:15.023Z,75.32
2018-08-30T17:30:44.049Z,74.59
2018-08-30T17:33:15.147Z,71.17
2018-08-30T17:35:44.527Z,70.72
2018-08-30T17:38:13.545Z,70.70
2018-08-30T17:40:43.666Z,71.18
2018-08-30T17:43:13.854Z,70.74
2018-08-30T17:45:44.968Z,69.97
2018-08-30T17:48:14.609Z,70.43
2018-08-30T17:50:56.054Z,70.48
2018-08-30T17:53:45.404Z,70.47
2018-08-30T17:56:17.898Z,69.76
2018-08-30T17:58:48.639Z,69.82
2018-08-30T18:01:18.165Z,68.88
2018-08-30T18:03:48.246Z,68.04
2018-08-30T18:06:17.859Z,68.21
2018-08-30T18:08:47.030Z,67.39
2018-08-30T18:11:18.810Z,67.05
2018-08-30T18:13:48.787Z,65.72
2018-08-30T18:16:18.571Z,65.40
2018-08-30T18:18:49.502Z,64.81
2018-08-30T18:21:18.409Z,63.82
2018-08-30T18:23:49.072Z,63.97
2018-08-30T18:26:17.817Z,63.72
2018-08-30T18:28:46.553Z,63.78
2018-08-30T18:31:16.211Z,62.51
2018-08-30T18:33:45.617Z,62.69
2018-08-30T18:36:15.384Z,63.16
2018-08-30T18:38:46.816Z,63.51
2018-08-30T18:41:16.306Z,63.27
2018-08-30T18:43:46.834Z,63.22
2018-08-30T18:46:17.069Z,62.63
2018-08-30T18:48:46.884Z,61.46
2018-08-30T18:51:15.989Z,62.29
2018-08-30T18:53:45.861Z,60.82
2018-08-30T18:56:15.743Z,61.43
2018-08-30T18:58:45.810Z,60.76
2018-08-30T19:01:14.573Z,60.69
2018-08-30T19:03:43.457Z,60.84
2018-08-30T19:06:14.599Z,61.48
2018-08-30T19:08:43.912Z,60.65
2018-08-30T19:11:13.077Z,60.50
2018-08-30T19:13:42.323Z,60.42
2018-08-30T19:16:17.815Z,61.64
2018-08-30T19:18:51.850Z,61.39
2018-08-30T19:21:21.657Z,61.33
2018-08-30T19:23:50.936Z,61.26
2018-08-30T19:26:20.920Z,61.42
2018-08-30T19:28:52.230Z,61.60
2018-08-30T19:31:23.317Z,62.06
2018-08-30T19:33:52.202Z,62.08
2018-08-30T19:36:31.403Z,62.53
2018-08-30T19:39:02.119Z,62.79
2018-08-30T19:41:32.666Z,63.37
2018-08-30T19:44:01.619Z,63.10
2018-08-30T19:46:31.915Z,63.71
2018-08-30T19:49:01.547Z,64.29
2018-08-30T19:51:30.538Z,64.29
2018-08-30T19:53:59.312Z,64.59
2018-08-30T19:56:28.450Z,65.06
2018-08-30T19:58:57.337Z,65.07
2018-08-30T20:01:26.838Z,65.61
2018-08-30T20:03:57.168Z,66.49
2018-08-30T20:06:26.126Z,66.85
2018-08-30T20:08:54.663Z,67.00
2018-08-30T20:11:23.298Z,67.07
2018-08-30T20:13:52.193Z,66.75
2018-08-30T20:16:21.052Z,66.57
2018-08-30T20:18:50.120Z,65.88
2018-08-30T20:21:20.218Z,66.46
2018-08-30T20:23:48.978Z,66.47
2018-08-30T20:26:18.413Z,66.93
2018-08-30T20:28:48.525Z,66.87
2018-08-30T20:31:17.692Z,67.00
2018-08-30T20:33:47.225Z,66.91
2018-08-30T20:36:16.223Z,66.49
2018-08-30T20:38:47.026Z,65.34
2018-08-30T20:41:17.543Z,66.02
2018-08-30T20:43:46.247Z,65.89
2018-08-30T20:46:15.178Z,65.96
2018-08-30T20:48:45.531Z,66.54
2018-08-30T20:51:14.693Z,66.43
2018-08-30T20:53:43.375Z,65.92
2018-08-30T20:56:13.291Z,66.43
2018-08-30T20:58:42.107Z,66.73
2018-08-30T21:01:17.317Z,67.03
2018-08-30T21:03:46.657Z,67.06
2018-08-30T21:06:15.608Z,67.48
2018-08-30T21:08:45.239Z,66.73
2018-08-30T21:11:14.109Z,66.74
2018-08-30T21:13:42.826Z,66.95
2018-08-30T21:16:12.032Z,67.57
2018-08-30T21:18:41.048Z,67.68
2018-08-30T21:21:09.958Z,67.74
2018-08-30T21:23:39.654Z,68.05
2018-08-30T21:26:09.467Z,67.61
2018-08-30T21:28:38.290Z,67.28
2018-08-30T21:34:11.471Z,68.00
2018-08-30T21:36:40.090Z,68.05
2018-08-30T21:39:19.582Z,68.27
2018-08-30T21:41:49.123Z,68.26
2018-08-30T21:44:18.339Z,68.56
2018-08-30T21:46:47.628Z,68.23
2018-08-30T21:49:16.203Z,68.55
2018-08-30T21:51:44.869Z,68.65
2018-08-30T21:54:13.925Z,67.78
2018-08-30T21:56:43.127Z,68.15
2018-08-30T21:59:12.010Z,68.37
2018-08-30T22:01:41.493Z,68.62
2018-08-30T22:04:10.107Z,69.12
2018-08-30T22:06:39.308Z,68.92
2018-08-30T22:09:13.396Z,68.72
2018-08-30T22:11:43.187Z,68.84
2018-08-30T22:14:12.053Z,69.00
2018-08-30T22:16:40.723Z,68.93
2018-08-30T22:19:09.509Z,69.06
2018-08-30T22:21:38.538Z,68.94
2018-08-30T22:24:08.687Z,68.91
2018-08-30T22:26:37.370Z,69.15
2018-08-30T22:29:07.204Z,69.33
2018-08-30T22:31:36.575Z,69.56
2018-08-30T22:34:05.427Z,69.22
2018-08-30T22:36:34.078Z,69.74
2018-08-30T22:39:02.927Z,69.66
2018-08-30T22:41:31.473Z,70.29
2018-08-30T22:44:00.206Z,69.77
2018-08-30T22:46:29.912Z,69.69
2018-08-30T22:48:58.610Z,69.94
2018-08-30T22:51:31.067Z,70.31
2018-08-30T22:53:59.930Z,70.32
2018-08-30T22:56:28.657Z,69.91
2018-08-30T22:58:57.313Z,70.03
2018-08-30T23:01:26.787Z,70.20
2018-08-30T23:03:55.498Z,70.34
2018-08-30T23:06:24.463Z,70.72
2018-08-30T23:08:53.053Z,70.46
2018-08-30T23:11:21.858Z,70.53
2018-08-30T23:13:50.757Z,70.50
2018-08-30T23:16:19.568Z,70.49
2018-08-30T23:18:48.279Z,70.83
2018-08-30T23:21:17.798Z,70.42
2018-08-30T23:23:47.049Z,71.00
2018-08-30T23:26:16.801Z,70.69
2018-08-30T23:28:46.030Z,70.83
2018-08-30T23:31:15.663Z,71.20
2018-08-30T23:33:45.717Z,70.80
2018-08-30T23:36:14.950Z,70.94
2018-08-30T23:38:44.382Z,70.82
2018-08-30T23:41:13.057Z,70.77
2018-08-30T23:43:42.345Z,70.85
2018-08-30T23:46:10.965Z,70.46
2018-08-30T23:48:39.584Z,70.36
2018-08-30T23:51:09.216Z,70.47
2018-08-30T23:53:38.448Z,70.55
2018-08-30T23:56:07.188Z,70.30
2018-08-30T23:58:47.757Z,70.45
